Time;durP1;ratioP1;P1;durP2;ratioP2;P2;SDS_P1;SDS_P2;PMS_P1;PMS_P2;Temp;Humidity;BMP_temperature;BMP_pressure;BME280_temperature;BME280_humidity;BME280_pressure;Samples;Min_cycle;Max_cycle;Signal;HPM_P1;HPM_P2
2024/04/20 00:03:51;;;;;;;11.60;3.83;;;17.60;51.80;;;;;;23189918;25;20066;-57
2024/04/20 00:13:52;;;;;;;7.38;2.28;;;17.40;52.10;;;;;;23188930;25;20425;-56
2024/04/20 00:23:54;;;;;;;8.65;2.97;;;17.40;52.30;;;;;;23189024;25;19999;-57
2024/04/20 00:33:56;;;;;;;9.27;2.22;;;17.30;52.60;;;;;;23188952;25;20004;-57
2024/04/20 00:43:57;;;;;;;8.63;2.65;;;17.20;52.70;;;;;;23186678;25;20068;-56
2024/04/20 00:53:59;;;;;;;6.47;2.63;;;17.20;53.00;;;;;;23187934;25;20443;-56
2024/04/20 01:04:00;;;;;;;7.05;2.47;;;18.00;50.80;;;;;;23187544;25;20071;-56
2024/04/20 01:14:02;;;;;;;6.20;2.38;;;17.20;52.80;;;;;;23184387;25;20066;-56
2024/04/20 01:24:07;;;;;;;9.18;2.25;;;17.10;53.10;;;;;;23183692;25;20063;-56
2024/04/20 01:34:08;;;;;;;6.72;2.35;;;17.00;53.30;;;;;;23185510;25;20007;-56
2024/04/20 01:44:10;;;;;;;7.18;2.65;;;16.70;54.70;;;;;;23183147;25;20000;-56
2024/04/20 01:54:12;;;;;;;8.15;3.00;;;16.30;56.20;;;;;;23182715;25;20005;-55
2024/04/20 02:04:13;;;;;;;8.05;3.42;;;16.20;56.70;;;;;;23196331;25;20003;-56
2024/04/20 02:14:15;;;;;;;6.15;3.20;;;16.20;57.20;;;;;;23196460;25;20003;-55
2024/04/20 02:24:16;;;;;;;6.30;3.33;;;16.10;57.40;;;;;;23194710;25;20000;-56
2024/04/20 02:34:17;;;;;;;7.18;3.25;;;16.00;57.90;;;;;;23195159;25;20010;-56
2024/04/20 02:44:19;;;;;;;7.47;3.38;;;15.80;58.20;;;;;;23195963;25;20007;-56
2024/04/20 02:54:20;;;;;;;6.10;3.38;;;15.70;58.80;;;;;;23195391;25;20422;-56
2024/04/20 03:04:21;;;;;;;8.73;3.15;;;15.50;59.40;;;;;;23192103;25;19992;-56
2024/04/20 03:14:22;;;;;;;5.38;2.90;;;15.30;60.10;;;;;;23192019;25;20327;-56
2024/04/20 03:24:24;;;;;;;5.65;3.35;;;15.20;60.10;;;;;;23191425;25;20355;-56
2024/04/20 03:34:25;;;;;;;5.63;3.25;;;15.10;60.30;;;;;;23191688;25;20007;-56
2024/04/20 03:44:26;;;;;;;7.90;3.35;;;15.10;60.30;;;;;;23191978;25;20506;-57
2024/04/20 03:54:27;;;;;;;8.55;4.22;;;15.00;60.30;;;;;;23192389;25;20000;-56
2024/04/20 04:04:28;;;;;;;7.07;3.75;;;14.90;60.50;;;;;;23190523;25;20059;-57
2024/04/20 04:14:29;;;;;;;7.82;3.40;;;14.80;60.50;;;;;;23190208;25;20311;-58
2024/04/20 04:24:31;;;;;;;7.07;3.20;;;14.70;60.50;;;;;;23187351;25;20317;-56
2024/04/20 04:34:32;;;;;;;7.82;3.55;;;14.50;60.60;;;;;;23188864;25;19996;-55
2024/04/20 04:44:37;;;;;;;5.85;3.35;;;14.50;60.70;;;;;;23189855;25;19996;-56
2024/04/20 04:54:41;;;;;;;10.82;3.55;;;14.30;61.10;;;;;;23186831;25;20010;-55
2024/04/20 05:04:42;;;;;;;7.93;3.40;;;14.20;61.60;;;;;;23185358;25;20000;-55
2024/04/20 05:14:43;;;;;;;6.20;3.40;;;14.20;61.50;;;;;;23186716;25;19995;-56
2024/04/20 05:24:44;;;;;;;5.75;3.33;;;14.20;61.80;;;;;;23183871;25;20000;-55
2024/04/20 05:34:46;;;;;;;10.57;4.00;;;14.10;61.90;;;;;;23184020;25;19996;-56
2024/04/20 05:44:47;;;;;;;7.18;3.90;;;14.10;62.10;;;;;;23183826;25;20000;-56
2024/04/20 05:54:49;;;;;;;10.55;3.65;;;14.00;62.10;;;;;;23182938;25;20406;-55
2024/04/20 06:04:52;;;;;;;8.38;3.42;;;14.00;62.20;;;;;;23182086;25;20004;-56
2024/04/20 06:14:54;;;;;;;8.68;3.95;;;14.00;62.10;;;;;;23179513;25;20322;-56
2024/04/20 06:24:58;;;;;;;8.55;4.07;;;13.90;62.30;;;;;;23179459;25;20011;-55
2024/04/20 06:34:59;;;;;;;9.93;4.60;;;13.90;62.30;;;;;;23176382;25;20000;-55
2024/04/20 06:45:00;;;;;;;7.68;3.75;;;13.80;62.30;;;;;;23183411;25;19996;-56
2024/04/20 06:55:03;;;;;;;11.85;4.45;;;14.00;61.90;;;;;;23191522;25;20071;-56
2024/04/20 07:05:06;;;;;;;11.02;3.90;;;14.20;61.30;;;;;;23190447;25;20004;-56
2024/04/20 07:15:08;;;;;;;10.13;4.63;;;14.50;60.60;;;;;;23192422;25;20357;-56
2024/04/20 07:25:09;;;;;;;9.07;4.35;;;14.90;59.40;;;;;;23192269;25;20000;-56
2024/04/20 07:35:12;;;;;;;7.18;4.15;;;15.20;57.20;;;;;;23188930;25;20011;-55
2024/04/20 07:45:13;;;;;;;5.45;2.90;;;15.60;55.40;;;;;;23187444;25;20000;-56
2024/04/20 07:55:17;;;;;;;7.38;2.80;;;15.90;52.50;;;;;;23189002;25;20357;-56
2024/04/20 08:05:18;;;;;;;;;;;16.30;50.70;;;;;;23186768;25;20000;-56
2024/04/20 08:15:21;;;;;;;6.78;2.75;;;16.70;50.60;;;;;;23187329;25;19937;-56
2024/04/20 08:25:22;;;;;;;6.75;2.25;;;17.20;48.30;;;;;;23186193;25;19996;-56
2024/04/20 08:35:23;;;;;;;4.93;1.85;;;17.20;46.60;;;;;;23182535;25;20008;-56
2024/04/20 08:45:26;;;;;;;3.65;1.73;;;17.70;44.60;;;;;;23183917;25;20008;-56
2024/04/20 08:55:32;;;;;;;7.68;2.00;;;17.90;43.90;;;;;;23182921;25;20000;-57
2024/04/20 09:05:33;;;;;;;6.75;2.40;;;;;;;;;;23181018;25;20003;-56
2024/04/20 09:15:37;;;;;;;3.83;1.65;;;;;;;;;;23182463;25;19998;-56
2024/04/20 09:25:38;;;;;;;6.50;1.80;;;;;;;;;;23181714;25;19999;-55
2024/04/20 09:35:42;;;;;;;7.93;2.40;;;;;;;;;;23181166;25;20007;-56
2024/04/20 09:45:44;;;;;;;5.22;1.92;;;;;;;;;;23182270;25;20040;-55
2024/04/20 09:55:49;;;;;;;4.57;1.67;;;;;;;;;;23181660;25;20000;-55
2024/04/20 10:05:51;;;;;;;5.25;2.05;;;;;;;;;;23179685;25;20018;-56
2024/04/20 10:15:54;;;;;;;4.47;1.87;;;;;;;;;;23180661;25;20004;-56
2024/04/20 10:25:56;;;;;;;4.18;1.58;;;;;;;;;;23195624;25;20317;-57
2024/04/20 10:35:59;;;;;;;12.50;2.42;;;;;;;;;;23192360;25;20004;-56
2024/04/20 10:46:04;;;;;;;4.70;1.50;;;;;;;;;;23191767;25;20000;-56
2024/04/20 10:56:08;;;;;;;4.80;1.40;;;;;;;;;;23190731;25;20039;-57
2024/04/20 11:06:10;;;;;;;3.28;1.33;;;;;;;;;;23190773;25;20067;-56
2024/04/20 11:16:13;;;;;;;5.53;1.53;;;;;;;;;;23191762;25;19996;-56
2024/04/20 11:26:15;;;;;;;4.07;1.55;;;;;;;;;;23192113;25;19996;-57
2024/04/20 11:36:17;;;;;;;3.22;1.40;;;;;;;;;;23190877;25;20433;-56
2024/04/20 11:46:19;;;;;;;3.13;1.60;;;;;;;;;;23190424;25;20452;-57
2024/04/20 11:56:21;;;;;;;4.25;1.50;;;;;;;;;;23190770;25;20028;-56
2024/04/20 12:06:23;;;;;;;4.67;1.33;;;;;;;;;;23188751;25;20000;-56
2024/04/20 12:16:26;;;;;;;4.88;2.47;;;;;;;;;;23191236;25;20032;-58
2024/04/20 12:26:29;;;;;;;4.60;1.63;;;;;;;;;;23189328;25;20351;-54
2024/04/20 12:36:31;;;;;;;5.40;1.23;;;;;;;;;;23185277;25;20056;-58
2024/04/20 12:46:33;;;;;;;4.25;1.30;;;;;;;;;;23182819;25;20325;-58
2024/04/20 12:56:34;;;;;;;4.80;1.00;;;;;;;;;;23183800;25;20004;-57
2024/04/20 13:06:38;;;;;;;3.20;1.00;;;;;;;;;;23185121;25;20012;-57
2024/04/20 13:16:39;;;;;;;5.22;1.20;;;;;;;;;;23185916;25;20000;-56
2024/04/20 13:26:43;;;;;;;4.32;1.55;;;;;;;;;;23186349;25;20000;-56
2024/04/20 13:36:46;;;;;;;3.40;1.20;;;;;;;;;;23183513;25;20015;-56
2024/04/20 13:46:47;;;;;;;3.45;1.23;;;;;;;;;;23184333;25;20381;-56
2024/04/20 13:56:52;;;;;;;2.63;1.10;;;;;;;;;;23180970;25;20381;-56
2024/04/20 14:06:54;;;;;;;1.73;0.88;;;;;;;;;;23181921;25;20015;-55
2024/04/20 14:16:56;;;;;;;6.03;1.50;;;;;;;;;;23179911;25;19996;-56
2024/04/20 14:26:57;;;;;;;3.93;1.07;;;;;;;;;;23178774;25;20006;-59
2024/04/20 14:37:02;;;;;;;5.07;1.17;;;;;;;;;;23176991;25;20445;-58
2024/04/20 14:47:03;;;;;;;8.75;0.82;;;;;;;;;;23174201;25;20458;-58
2024/04/20 14:57:05;;;;;;;1.25;0.70;;;;;;;;;;23169297;25;20384;-59
2024/04/20 15:07:06;;;;;;;10.13;1.70;;;;;;;;;;23166423;25;20501;-58
2024/04/20 15:17:08;;;;;;;1.92;0.73;;;;;;;;;;23187105;25;20008;-59
2024/04/20 15:27:10;;;;;;;2.33;0.80;;;;;;;;;;23193054;25;20028;-58
2024/04/20 15:37:11;;;;;;;2.23;0.63;;;;;;;;;;23191750;25;20070;-58
2024/04/20 15:47:13;;;;;;;1.03;0.60;;;;;;;;;;23132171;25;20071;-60
2024/04/20 15:57:14;;;;;;;3.42;1.45;;;;;;;;;;23191065;25;20007;-59
2024/04/20 16:07:16;;;;;;;1.33;0.82;;;;;;;;;;23180996;25;20008;-58
2024/04/20 16:17:17;;;;;;;0.85;0.50;;;;;;;;;;23147982;25;20012;-58
2024/04/20 16:27:20;;;;;;;1.88;0.90;;;;;;;;;;23148233;25;20011;-59
2024/04/20 16:37:22;;;;;;;1.27;0.70;;;;;;;;;;23180922;25;20012;-57
2024/04/20 16:47:23;;;;;;;1.17;0.85;;;;;;;;;;23170515;25;20008;-58
2024/04/20 16:57:25;;;;;;;3.35;1.20;;;;;;;;;;23179727;25;20019;-59
2024/04/20 17:07:26;;;;;;;3.38;1.13;;;;;;;;;;23183331;25;20014;-58
2024/04/20 17:17:27;;;;;;;2.65;1.15;;;;;;;;;;23183855;25;20298;-59
2024/04/20 17:27:28;;;;;;;2.17;1.30;;;;;;;;;;23183817;25;20088;-59
2024/04/20 17:37:30;;;;;;;3.33;1.15;;;;;;;;;;23181966;25;19996;-60
2024/04/20 17:47:31;;;;;;;2.90;1.20;;;;;;;;;;23181160;25;20000;-59
2024/04/20 17:57:33;;;;;;;4.18;0.95;;;;;;;;;;23180523;25;19996;-59
2024/04/20 18:07:35;;;;;;;2.10;0.97;;;;;;;;;;23182326;25;20075;-59
2024/04/20 18:17:36;;;;;;;3.53;1.20;;;;;;;;;;23178994;25;20003;-59
2024/04/20 18:27:37;;;;;;;5.85;1.52;;;;;;;;;;23178722;25;20437;-57
2024/04/20 18:37:39;;;;;;;4.47;1.25;;;;;;;;;;23176082;25;20430;-62
2024/04/20 18:47:42;;;;;;;6.25;1.65;;;;;;;;;;23125379;25;19997;-61
2024/04/20 18:57:44;;;;;;;5.13;1.38;;;;;;;;;;23027375;25;20351;-62
2024/04/20 19:07:45;;;;;;;8.35;1.30;;;;;;;;;;23022252;25;20000;-60
2024/04/20 19:17:47;;;;;;;13.13;3.25;;;;;;;;;;23016336;25;20076;-63
2024/04/20 19:27:48;;;;;;;10.38;7.80;;;;;;;;;;23032708;25;20000;-62
2024/04/20 19:37:49;;;;;;;15.85;8.85;;;;;;;;;;23032528;25;20009;-61
2024/04/20 19:47:51;;;;;;;13.48;7.78;;;;;;;;;;23033262;25;20010;-61
2024/04/20 19:57:52;;;;;;;4.78;2.40;;;;;;;;;;23032602;25;20070;-60
2024/04/20 20:07:53;;;;;;;3.58;1.48;;;;;;;;;;23032006;25;20068;-62
2024/04/20 20:17:55;;;;;;;2.50;1.20;;;;;;;;;;23031856;25;20025;-61
2024/04/20 20:27:57;;;;;;;3.67;1.60;;;;;;;;;;23030537;25;20016;-61
2024/04/20 20:37:59;;;;;;;2.38;1.30;;;;;;;;;;23027079;25;20001;-61
2024/04/20 20:48:00;;;;;;;2.13;1.30;;;;;;;;;;23028023;25;20102;-61
2024/04/20 20:58:02;;;;;;;2.90;1.20;;;;;;;;;;23026232;25;20355;-61
2024/04/20 21:08:03;;;;;;;2.85;1.10;;;;;;;;;;23025971;25;20076;-61
2024/04/20 21:18:04;;;;;;;2.67;1.35;;;;;;;;;;23028019;25;20001;-60
2024/04/20 21:28:06;;;;;;;2.92;1.30;;;;;;;;;;23027872;25;20442;-60
2024/04/20 21:38:07;;;;;;;2.22;1.42;;;;;;;;;;23022907;25;20438;-60
2024/04/20 21:48:08;;;;;;;4.70;2.65;;;;;;;;;;23024173;25;20015;-60
2024/04/20 21:58:10;;;;;;;5.03;1.55;;;;;;;;;;23024156;25;20005;-60
2024/04/20 22:08:12;;;;;;;2.17;1.08;;;;;;;;;;23024143;25;20037;-61
2024/04/20 22:18:14;;;;;;;5.70;1.20;;;;;;;;;;23034363;25;20011;-61
2024/04/20 22:28:15;;;;;;;3.75;1.23;;;;;;;;;;23039650;25;19997;-61
2024/04/20 22:38:17;;;;;;;2.75;1.30;;;;;;;;;;23037997;25;19997;-61
2024/04/20 22:48:18;;;;;;;2.97;1.50;;;;;;;;;;23037260;25;20000;-60
2024/04/20 22:58:20;;;;;;;2.10;1.23;;;;;;;;;;23035249;25;20001;-60
2024/04/20 23:08:21;;;;;;;3.00;1.25;;;;;;;;;;23036012;25;20398;-60
2024/04/20 23:18:22;;;;;;;2.50;0.98;;;;;;;;;;23035158;25;20007;-60
2024/04/20 23:28:24;;;;;;;5.47;1.23;;;;;;;;;;23035032;25;20069;-60
2024/04/20 23:38:25;;;;;;;2.47;1.00;;;;;;;;;;23032804;25;20284;-61
2024/04/20 23:48:27;;;;;;;2.00;1.02;;;;;;;;;;23033365;25;20094;-60
2024/04/20 23:58:28;;;;;;;3.47;1.20;;;;;;;;;;23032731;25;20483;-60
